Pagina principale
METAR-TAF:

METAR-TAF

Aeroporti :

La Chaux-de-Fonds, Svizzera

latitudine: 47-05-03N, longitudine: 006-47-37E, altezza: 1027 m

Osservazione

Il bollettino è stato emesso 33 minuti fa, alle 18:50 UTC
Vento 5 kt da nord/nord-est
Temperature 13°C
Umidità 47%
Pressione 1024 hPa
Visibilità 10 km o più
nessuna nube inferiore a 1500 m e nessun cumulonembo

METAR: LSGC 231850Z AUTO 02005KT CAVOK 13/02 Q1024

Ora: 21:23 (19:23 UTC)

Previsione

Il bollettino è stato emesso 4 ore e 58 minuti fa, alle 14:25 UTC
Previsione valida dal 23 alle 15 UTC al 23 alle 24 UTC
Vento 12 kt da nord-est
Visibilità 10 km o più
nessuna nube inferiore a 1500 m e nessun cumulonembo
Evoluzione graduale
dal 23 alle 16 UTC al 23 alle 19 UTC
Vento 2 kt da nord-est

TAF: LSGC 231425Z 2315/2324 04012KT CAVOK BECMG 2316/2319 04002KT

Osservazioni e previsioni meteorologiche di più di 4000 aeroporti (messaggi METAR e TAF).

Le stazioni disponibili sono rappresentate dai dischi gialli e rossi sulla carta.

Puntare il mouse per vedere il nome della stazione.

Clicca sopra per visualizzare le osservazioni e previsioni meteorologiche.

Per cambiare la mappa : fare clic sui pulsanti verdi con una croce nera per ingrandire, il pulsante verde con un trattino per diminuire, o sulla freccia verde per le mappe adiacenti.


METAR-TAF: